sensor_id;sensor_type;location;lat;lon;timestamp;pressure;altitude;pressure_sealevel;temperature;humidity
15260;BME280;34462;51.368;12.364;2022-09-09T00:00:14;19135.09;;;-141.84;79.69
15260;BME280;34462;51.368;12.364;2022-09-09T00:02:50;19082.25;;;-141.84;79.51
15260;BME280;34462;51.368;12.364;2022-09-09T00:05:32;19082.25;;;-141.84;80.01
15260;BME280;34462;51.368;12.364;2022-09-09T00:08:15;19102.56;;;-141.84;80.45
15260;BME280;34462;51.368;12.364;2022-09-09T00:10:53;19106.66;;;-141.84;79.84
15260;BME280;34462;51.368;12.364;2022-09-09T00:13:34;19096.47;;;-141.84;80.02
15260;BME280;34462;51.368;12.364;2022-09-09T00:16:13;19096.47;;;-141.84;79.74
15260;BME280;34462;51.368;12.364;2022-09-09T00:18:57;19066.00;;;-141.84;80.05
15260;BME280;34462;51.368;12.364;2022-09-09T00:21:34;19086.31;;;-141.84;80.46
15260;BME280;34462;51.368;12.364;2022-09-09T00:24:24;19063.97;;;-141.84;80.56
15260;BME280;34462;51.368;12.364;2022-09-09T00:27:01;19100.53;;;-141.84;80.80
15260;BME280;34462;51.368;12.364;2022-09-09T00:29:41;19051.78;;;-141.84;81.73
15260;BME280;34462;51.368;12.364;2022-09-09T00:32:15;19086.31;;;-141.84;81.22
15260;BME280;34462;51.368;12.364;2022-09-09T00:34:49;19049.75;;;-141.84;81.26
15260;BME280;34462;51.368;12.364;2022-09-09T00:37:20;19035.53;;;-141.84;80.66
15260;BME280;34462;51.368;12.364;2022-09-09T00:39:53;19057.88;;;-141.84;79.98
15260;BME280;34462;51.368;12.364;2022-09-09T00:42:27;19063.97;;;-141.84;80.21
15260;BME280;34462;51.368;12.364;2022-09-09T00:45:28;19082.25;;;-141.84;79.86
15260;BME280;34462;51.368;12.364;2022-09-09T00:48:10;19066.00;;;-141.84;80.23
15260;BME280;34462;51.368;12.364;2022-09-09T00:50:51;19066.00;;;-141.84;80.33
15260;BME280;34462;51.368;12.364;2022-09-09T00:53:35;19102.56;;;-141.84;79.24
15260;BME280;34462;51.368;12.364;2022-09-09T00:56:14;19080.22;;;-141.84;79.46
15260;BME280;34462;51.368;12.364;2022-09-09T00:58:57;19057.88;;;-141.84;80.15
15260;BME280;34462;51.368;12.364;2022-09-09T01:01:32;19072.09;;;-141.84;80.37
15260;BME280;34462;51.368;12.364;2022-09-09T01:04:00;19068.03;;;-141.84;80.81
15260;BME280;34462;51.368;12.364;2022-09-09T01:06:35;19039.59;;;-141.84;80.60
15260;BME280;34462;51.368;12.364;2022-09-09T01:09:16;19078.19;;;-141.84;80.04
15260;BME280;34462;51.368;12.364;2022-09-09T01:12:01;19090.38;;;-141.84;79.17
15260;BME280;34462;51.368;12.364;2022-09-09T01:14:40;19112.75;;;-141.84;78.48
15260;BME280;34462;51.368;12.364;2022-09-09T01:17:17;19063.97;;;-141.84;79.18
15260;BME280;34462;51.368;12.364;2022-09-09T01:20:00;19090.38;;;-141.84;79.74
15260;BME280;34462;51.368;12.364;2022-09-09T01:22:39;19055.84;;;-141.84;79.03
15260;BME280;34462;51.368;12.364;2022-09-09T01:25:22;19100.53;;;-141.84;78.92
15260;BME280;34462;51.368;12.364;2022-09-09T01:27:59;19080.22;;;-141.84;78.19
15260;BME280;34462;51.368;12.364;2022-09-09T01:30:28;19114.78;;;-141.84;78.20
15260;BME280;34462;51.368;12.364;2022-09-09T01:32:58;19078.19;;;-141.84;79.03
15260;BME280;34462;51.368;12.364;2022-09-09T01:35:44;19094.44;;;-141.84;79.41
15260;BME280;34462;51.368;12.364;2022-09-09T01:38:15;19053.81;;;-141.84;80.12
15260;BME280;34462;51.368;12.364;2022-09-09T01:40:43;19092.41;;;-141.84;79.72
15260;BME280;34462;51.368;12.364;2022-09-09T01:43:13;19096.47;;;-141.84;79.63
15260;BME280;34462;51.368;12.364;2022-09-09T01:45:44;19112.75;;;-141.84;78.72
15260;BME280;34462;51.368;12.364;2022-09-09T01:48:14;19114.78;;;-141.84;78.65
15260;BME280;34462;51.368;12.364;2022-09-09T01:50:43;19100.53;;;-141.84;79.18
15260;BME280;34462;51.368;12.364;2022-09-09T01:53:12;19096.47;;;-141.84;78.21
15260;BME280;34462;51.368;12.364;2022-09-09T01:55:54;19114.78;;;-141.84;77.69
15260;BME280;34462;51.368;12.364;2022-09-09T01:58:34;19118.84;;;-141.84;77.97
15260;BME280;34462;51.368;12.364;2022-09-09T02:01:17;19167.59;;;-141.84;79.12
15260;BME280;34462;51.368;12.364;2022-09-09T02:03:54;19104.59;;;-141.84;79.53
15260;BME280;34462;51.368;12.364;2022-09-09T02:06:31;19114.78;;;-141.84;77.58
15260;BME280;34462;51.368;12.364;2022-09-09T02:09:05;19114.78;;;-141.84;78.08
15260;BME280;34462;51.368;12.364;2022-09-09T02:11:34;19126.97;;;-141.84;77.53
15260;BME280;34462;51.368;12.364;2022-09-09T02:14:11;19096.47;;;-141.84;78.04
15260;BME280;34462;51.368;12.364;2022-09-09T02:16:47;19082.25;;;-141.84;78.89
15260;BME280;34462;51.368;12.364;2022-09-09T02:19:24;19114.78;;;-141.84;77.78
15260;BME280;34462;51.368;12.364;2022-09-09T02:21:56;19098.50;;;-141.84;78.60
15260;BME280;34462;51.368;12.364;2022-09-09T02:24:29;19114.78;;;-141.84;79.01
15260;BME280;34462;51.368;12.364;2022-09-09T02:27:04;19094.44;;;-141.84;78.99
15260;BME280;34462;51.368;12.364;2022-09-09T02:29:39;19114.78;;;-141.84;79.19
15260;BME280;34462;51.368;12.364;2022-09-09T02:32:12;19053.81;;;-141.84;79.54
15260;BME280;34462;51.368;12.364;2022-09-09T02:34:45;19114.78;;;-141.84;79.40
15260;BME280;34462;51.368;12.364;2022-09-09T02:37:19;19110.72;;;-141.84;78.27
15260;BME280;34462;51.368;12.364;2022-09-09T02:39:48;19084.28;;;-141.84;78.76
15260;BME280;34462;51.368;12.364;2022-09-09T02:42:16;19094.44;;;-141.84;78.50
15260;BME280;34462;51.368;12.364;2022-09-09T02:44:47;19066.00;;;-141.84;77.83
15260;BME280;34462;51.368;12.364;2022-09-09T02:47:27;19086.31;;;-141.84;77.78
15260;BME280;34462;51.368;12.364;2022-09-09T02:50:09;19151.34;;;-141.84;76.56
15260;BME280;34462;51.368;12.364;2022-09-09T02:52:54;19114.78;;;-141.84;76.64
15260;BME280;34462;51.368;12.364;2022-09-09T02:55:37;19074.13;;;-141.84;77.71
15260;BME280;34462;51.368;12.364;2022-09-09T02:58:09;19084.28;;;-141.84;77.24
15260;BME280;34462;51.368;12.364;2022-09-09T03:00:40;19080.22;;;-141.84;78.20
15260;BME280;34462;51.368;12.364;2022-09-09T03:03:09;19126.97;;;-141.84;77.52
15260;BME280;34462;51.368;12.364;2022-09-09T03:05:37;19143.22;;;-141.84;77.71
15260;BME280;34462;51.368;12.364;2022-09-09T03:08:05;19055.84;;;-141.84;77.90
15260;BME280;34462;51.368;12.364;2022-09-09T03:10:34;19102.56;;;-141.84;77.82
15260;BME280;34462;51.368;12.364;2022-09-09T03:13:03;19055.84;;;-141.84;78.32
15260;BME280;34462;51.368;12.364;2022-09-09T03:15:33;19076.16;;;-141.84;78.64
15260;BME280;34462;51.368;12.364;2022-09-09T03:18:02;19098.50;;;-141.84;77.37
15260;BME280;34462;51.368;12.364;2022-09-09T03:20:31;19080.22;;;-141.84;76.98
15260;BME280;34462;51.368;12.364;2022-09-09T03:23:00;19066.00;;;-141.84;78.03
15260;BME280;34462;51.368;12.364;2022-09-09T03:25:29;19088.34;;;-141.84;77.43
15260;BME280;34462;51.368;12.364;2022-09-09T03:27:58;19147.28;;;-141.84;77.50
15260;BME280;34462;51.368;12.364;2022-09-09T03:30:27;19086.31;;;-141.84;77.92
15260;BME280;34462;51.368;12.364;2022-09-09T03:32:56;19070.06;;;-141.84;78.62
15260;BME280;34462;51.368;12.364;2022-09-09T03:35:25;19066.00;;;-141.84;77.85
15260;BME280;34462;51.368;12.364;2022-09-09T03:37:53;19088.34;;;-141.84;77.72
15260;BME280;34462;51.368;12.364;2022-09-09T03:40:22;19110.72;;;-141.84;77.50
15260;BME280;34462;51.368;12.364;2022-09-09T03:42:50;19072.09;;;-141.84;77.39
15260;BME280;34462;51.368;12.364;2022-09-09T03:45:18;19080.22;;;-141.84;78.20
15260;BME280;34462;51.368;12.364;2022-09-09T03:47:46;19080.22;;;-141.84;78.38
15260;BME280;34462;51.368;12.364;2022-09-09T03:50:14;19053.81;;;-141.84;77.99
15260;BME280;34462;51.368;12.364;2022-09-09T03:52:44;19080.22;;;-141.84;77.09
15260;BME280;34462;51.368;12.364;2022-09-09T03:55:12;19126.97;;;-141.84;76.10
15260;BME280;34462;51.368;12.364;2022-09-09T03:57:41;19106.66;;;-141.84;76.64
15260;BME280;34462;51.368;12.364;2022-09-09T04:00:10;19124.94;;;-141.84;75.58
15260;BME280;34462;51.368;12.364;2022-09-09T04:02:38;19167.59;;;-141.84;75.59
15260;BME280;34462;51.368;12.364;2022-09-09T04:05:07;19068.03;;;-141.84;76.95
15260;BME280;34462;51.368;12.364;2022-09-09T04:07:36;19082.25;;;-141.84;78.25
15260;BME280;34462;51.368;12.364;2022-09-09T04:10:07;19019.28;;;-141.84;78.62
15260;BME280;34462;51.368;12.364;2022-09-09T04:12:36;19037.56;;;-141.84;78.44
15260;BME280;34462;51.368;12.364;2022-09-09T04:15:05;19112.75;;;-141.84;76.23
15260;BME280;34462;51.368;12.364;2022-09-09T04:17:34;19143.22;;;-141.84;76.85
15260;BME280;34462;51.368;12.364;2022-09-09T04:20:03;19124.94;;;-141.84;76.63
15260;BME280;34462;51.368;12.364;2022-09-09T04:22:31;19108.69;;;-141.84;76.58
15260;BME280;34462;51.368;12.364;2022-09-09T04:25:00;19092.41;;;-141.84;77.04
15260;BME280;34462;51.368;12.364;2022-09-09T04:27:30;19086.31;;;-141.84;77.60
15260;BME280;34462;51.368;12.364;2022-09-09T04:29:58;19098.50;;;-141.84;77.83
15260;BME280;34462;51.368;12.364;2022-09-09T04:32:26;19139.16;;;-141.84;76.40
15260;BME280;34462;51.368;12.364;2022-09-09T04:34:54;19163.53;;;-141.84;75.52
15260;BME280;34462;51.368;12.364;2022-09-09T04:37:22;19171.66;;;-141.84;76.00
15260;BME280;34462;51.368;12.364;2022-09-09T04:39:51;19159.47;;;-141.84;75.78
15260;BME280;34462;51.368;12.364;2022-09-09T04:42:19;19159.47;;;-141.84;75.68
15260;BME280;34462;51.368;12.364;2022-09-09T04:44:49;19218.41;;;-141.84;73.53
15260;BME280;34462;51.368;12.364;2022-09-09T04:47:16;19250.91;;;-141.84;72.67
15260;BME280;34462;51.368;12.364;2022-09-09T04:49:45;19267.16;;;-141.84;72.01
15260;BME280;34462;51.368;12.364;2022-09-09T04:52:13;19267.16;;;-141.84;72.91
15260;BME280;34462;51.368;12.364;2022-09-09T04:54:44;19236.69;;;-141.84;73.49
15260;BME280;34462;51.368;12.364;2022-09-09T04:57:13;19183.84;;;-141.84;74.51
15260;BME280;34462;51.368;12.364;2022-09-09T04:59:44;19240.75;;;-141.84;73.68
15260;BME280;34462;51.368;12.364;2022-09-09T05:02:14;19263.09;;;-141.84;73.64
15260;BME280;34462;51.368;12.364;2022-09-09T05:04:42;19232.63;;;-141.84;74.38
15260;BME280;34462;51.368;12.364;2022-09-09T05:07:10;19210.28;;;-141.84;74.12
15260;BME280;34462;51.368;12.364;2022-09-09T05:09:38;19228.56;;;-141.84;74.23
15260;BME280;34462;51.368;12.364;2022-09-09T05:12:06;19236.69;;;-141.84;74.29
15260;BME280;34462;51.368;12.364;2022-09-09T05:14:34;19228.56;;;-141.84;74.26
15260;BME280;34462;51.368;12.364;2022-09-09T05:17:04;19250.91;;;-141.84;74.16
15260;BME280;34462;51.368;12.364;2022-09-09T05:19:34;19291.56;;;-141.84;72.70
15260;BME280;34462;51.368;12.364;2022-09-09T05:22:02;19328.13;;;-141.84;72.13
15260;BME280;34462;51.368;12.364;2022-09-09T05:24:31;19309.84;;;-141.84;72.67
15260;BME280;34462;51.368;12.364;2022-09-09T05:27:00;19309.84;;;-141.84;72.67
15260;BME280;34462;51.368;12.364;2022-09-09T05:29:29;19313.91;;;-141.84;72.71
15260;BME280;34462;51.368;12.364;2022-09-09T05:31:58;19366.75;;;-141.84;71.48
15260;BME280;34462;51.368;12.364;2022-09-09T05:34:26;19376.91;;;-141.84;72.09
15260;BME280;34462;51.368;12.364;2022-09-09T05:36:56;19354.56;;;-141.84;71.42
15260;BME280;34462;51.368;12.364;2022-09-09T05:39:25;19383.00;;;-141.84;71.60
15260;BME280;34462;51.368;12.364;2022-09-09T05:41:53;19409.41;;;-141.84;71.62
15260;BME280;34462;51.368;12.364;2022-09-09T05:44:22;19427.72;;;-141.84;71.29
15260;BME280;34462;51.368;12.364;2022-09-09T05:46:54;19446.00;;;-141.84;70.41
15260;BME280;34462;51.368;12.364;2022-09-09T05:49:22;19456.16;;;-141.84;70.94
15260;BME280;34462;51.368;12.364;2022-09-09T05:51:51;19450.06;;;-141.84;70.79
15260;BME280;34462;51.368;12.364;2022-09-09T05:54:20;19498.84;;;-141.84;69.55
15260;BME280;34462;51.368;12.364;2022-09-09T05:56:49;19484.59;;;-141.84;70.17
15260;BME280;34462;51.368;12.364;2022-09-09T05:59:18;19484.59;;;-141.84;70.07
15260;BME280;34462;51.368;12.364;2022-09-09T06:01:46;19502.91;;;-141.84;70.17
15260;BME280;34462;51.368;12.364;2022-09-09T06:04:14;19578.09;;;-141.84;69.49
15260;BME280;34462;51.368;12.364;2022-09-09T06:06:42;19641.09;;;-141.84;68.41
15260;BME280;34462;51.368;12.364;2022-09-09T06:09:10;19734.56;;;-141.84;66.38
15260;BME280;34462;51.368;12.364;2022-09-09T06:11:40;19728.47;;;-141.84;66.35
15260;BME280;34462;51.368;12.364;2022-09-09T06:14:08;19728.47;;;-141.84;66.49
15260;BME280;34462;51.368;12.364;2022-09-09T06:16:37;19736.59;;;-141.84;66.94
15260;BME280;34462;51.368;12.364;2022-09-09T06:19:05;19746.78;;;-141.84;67.15
15260;BME280;34462;51.368;12.364;2022-09-09T06:21:36;19903.25;;;-141.84;64.54
15260;BME280;34462;51.368;12.364;2022-09-09T06:24:05;19848.38;;;-141.84;65.48
15260;BME280;34462;51.368;12.364;2022-09-09T06:26:36;19868.72;;;-141.84;65.65
15260;BME280;34462;51.368;12.364;2022-09-09T06:29:09;19807.75;;;-141.84;66.07
15260;BME280;34462;51.368;12.364;2022-09-09T06:31:38;19897.16;;;-141.84;65.37
15260;BME280;34462;51.368;12.364;2022-09-09T06:34:08;19889.03;;;-141.84;65.50
15260;BME280;34462;51.368;12.364;2022-09-09T06:36:38;19907.31;;;-141.84;65.65
15260;BME280;34462;51.368;12.364;2022-09-09T06:39:07;19884.97;;;-141.84;65.29
15260;BME280;34462;51.368;12.364;2022-09-09T06:41:41;20029.28;;;-141.84;63.40
15260;BME280;34462;51.368;12.364;2022-09-09T06:44:11;20027.25;;;-141.84;63.61
15260;BME280;34462;51.368;12.364;2022-09-09T06:46:39;20019.13;;;-141.84;64.36
15260;BME280;34462;51.368;12.364;2022-09-09T06:49:08;20000.81;;;-141.84;64.25
15260;BME280;34462;51.368;12.364;2022-09-09T06:51:38;19980.50;;;-141.84;64.81
15260;BME280;34462;51.368;12.364;2022-09-09T06:54:11;20045.53;;;-141.84;64.20
15260;BME280;34462;51.368;12.364;2022-09-09T06:56:42;20047.56;;;-141.84;64.13
15260;BME280;34462;51.368;12.364;2022-09-09T06:59:12;20043.50;;;-141.84;64.26
15260;BME280;34462;51.368;12.364;2022-09-09T07:01:43;20076.03;;;-141.84;63.89
15260;BME280;34462;51.368;12.364;2022-09-09T07:04:11;20084.16;;;-141.84;64.35
15260;BME280;34462;51.368;12.364;2022-09-09T07:06:43;20134.97;;;-141.84;63.53
15260;BME280;34462;51.368;12.364;2022-09-09T07:09:14;20277.25;;;-141.84;61.21
15260;BME280;34462;51.368;12.364;2022-09-09T07:11:44;20277.25;;;-141.84;61.88
15260;BME280;34462;51.368;12.364;2022-09-09T07:14:15;20267.09;;;-141.84;62.12
15260;BME280;34462;51.368;12.364;2022-09-09T07:16:45;20360.59;;;-141.84;61.40
15260;BME280;34462;51.368;12.364;2022-09-09T07:19:14;20382.94;;;-141.84;60.67
15260;BME280;34462;51.368;12.364;2022-09-09T07:21:42;20484.56;;;-141.84;59.97
15260;BME280;34462;51.368;12.364;2022-09-09T07:24:11;20502.88;;;-141.84;58.99
15260;BME280;34462;51.368;12.364;2022-09-09T07:26:40;20557.75;;;-141.84;57.77
15260;BME280;34462;51.368;12.364;2022-09-09T07:29:09;20637.03;;;-141.84;58.23
15260;BME280;34462;51.368;12.364;2022-09-09T07:31:47;20586.22;;;-141.84;58.73
15260;BME280;34462;51.368;12.364;2022-09-09T07:34:15;20665.50;;;-141.84;58.17
15260;BME280;34462;51.368;12.364;2022-09-09T07:36:44;20675.66;;;-141.84;58.31
15260;BME280;34462;51.368;12.364;2022-09-09T07:39:14;20600.44;;;-141.84;58.23
15260;BME280;34462;51.368;12.364;2022-09-09T07:41:46;20582.16;;;-141.84;58.51
15260;BME280;34462;51.368;12.364;2022-09-09T07:44:17;20614.66;;;-141.84;58.41
15260;BME280;34462;51.368;12.364;2022-09-09T07:46:49;20584.19;;;-141.84;58.89
15260;BME280;34462;51.368;12.364;2022-09-09T07:49:17;20537.44;;;-141.84;59.24
15260;BME280;34462;51.368;12.364;2022-09-09T07:51:54;20608.56;;;-141.84;58.28
15260;BME280;34462;51.368;12.364;2022-09-09T07:54:22;20563.84;;;-141.84;58.66
15260;BME280;34462;51.368;12.364;2022-09-09T07:56:51;20647.19;;;-141.84;58.67
15260;BME280;34462;51.368;12.364;2022-09-09T07:59:19;20675.66;;;-141.84;58.04
15260;BME280;34462;51.368;12.364;2022-09-09T08:01:51;20663.47;;;-141.84;58.24
15260;BME280;34462;51.368;12.364;2022-09-09T08:04:22;20679.72;;;-141.84;58.61
15260;BME280;34462;51.368;12.364;2022-09-09T08:06:55;20665.50;;;-141.84;58.68
15260;BME280;34462;51.368;12.364;2022-09-09T08:09:25;20714.28;;;-141.84;57.97
15260;BME280;34462;51.368;12.364;2022-09-09T08:11:56;20822.03;;;-141.84;57.29
15260;BME280;34462;51.368;12.364;2022-09-09T08:14:25;20830.16;;;-141.84;57.03
15260;BME280;34462;51.368;12.364;2022-09-09T08:16:55;20901.31;;;-141.84;56.15
15260;BME280;34462;51.368;12.364;2022-09-09T08:19:23;20992.78;;;-141.84;55.35
15260;BME280;34462;51.368;12.364;2022-09-09T08:21:51;21021.25;;;-141.84;54.30
15260;BME280;34462;51.368;12.364;2022-09-09T08:24:20;20956.19;;;-141.84;55.51
15260;BME280;34462;51.368;12.364;2022-09-09T08:26:49;21035.47;;;-141.84;54.97
15260;BME280;34462;51.368;12.364;2022-09-09T08:29:18;20978.56;;;-141.84;55.31
15260;BME280;34462;51.368;12.364;2022-09-09T08:31:48;21000.91;;;-141.84;55.15
15260;BME280;34462;51.368;12.364;2022-09-09T08:34:18;21045.63;;;-141.84;55.22
15260;BME280;34462;51.368;12.364;2022-09-09T08:36:49;21037.50;;;-141.84;55.50
15260;BME280;34462;51.368;12.364;2022-09-09T08:39:20;21027.34;;;-141.84;55.49
15260;BME280;34462;51.368;12.364;2022-09-09T08:42:08;21041.56;;;-141.84;55.85
15260;BME280;34462;51.368;12.364;2022-09-09T08:44:59;21031.41;;;-141.84;54.98
15260;BME280;34462;51.368;12.364;2022-09-09T08:47:39;20990.75;;;-141.84;55.92
15260;BME280;34462;51.368;12.364;2022-09-09T08:50:22;20980.59;;;-141.84;56.11
15260;BME280;34462;51.368;12.364;2022-09-09T08:53:01;20996.84;;;-141.84;56.36
15260;BME280;34462;51.368;12.364;2022-09-09T08:55:40;21068.00;;;-141.84;56.25
15260;BME280;34462;51.368;12.364;2022-09-09T08:58:14;21037.50;;;-141.84;55.94
15260;BME280;34462;51.368;12.364;2022-09-09T09:01:09;21102.56;;;-141.84;55.26
15260;BME280;34462;51.368;12.364;2022-09-09T09:03:48;21061.91;;;-141.84;55.35
15260;BME280;34462;51.368;12.364;2022-09-09T09:06:38;21057.84;;;-141.84;55.30
15260;BME280;34462;51.368;12.364;2022-09-09T09:09:20;21065.97;;;-141.84;55.92
15260;BME280;34462;51.368;12.364;2022-09-09T09:11:53;21059.88;;;-141.84;54.86
15260;BME280;34462;51.368;12.364;2022-09-09T09:14:25;21098.50;;;-141.84;55.15
15260;BME280;34462;51.368;12.364;2022-09-09T09:17:01;21116.78;;;-141.84;54.31
15260;BME280;34462;51.368;12.364;2022-09-09T09:19:33;21112.72;;;-141.84;53.86
15260;BME280;34462;51.368;12.364;2022-09-09T09:22:14;21159.50;;;-141.84;52.31
15260;BME280;34462;51.368;12.364;2022-09-09T09:24:52;21226.59;;;-141.84;52.75
15260;BME280;34462;51.368;12.364;2022-09-09T09:27:34;21236.75;;;-141.84;52.21
15260;BME280;34462;51.368;12.364;2022-09-09T09:30:15;21196.09;;;-141.84;53.06
15260;BME280;34462;51.368;12.364;2022-09-09T09:32:59;21275.38;;;-141.84;51.80
15260;BME280;34462;51.368;12.364;2022-09-09T09:35:29;21267.25;;;-141.84;52.14
15260;BME280;34462;51.368;12.364;2022-09-09T09:37:59;21301.81;;;-141.84;52.19
15260;BME280;34462;51.368;12.364;2022-09-09T09:40:50;21387.19;;;-141.84;51.14
15260;BME280;34462;51.368;12.364;2022-09-09T09:43:27;21462.44;;;-141.84;50.28
15260;BME280;34462;51.368;12.364;2022-09-09T09:45:57;21497.00;;;-141.84;49.45
15260;BME280;34462;51.368;12.364;2022-09-09T09:48:43;21464.47;;;-141.84;50.23
15260;BME280;34462;51.368;12.364;2022-09-09T09:51:17;21464.47;;;-141.84;50.33
15260;BME280;34462;51.368;12.364;2022-09-09T09:53:47;21484.78;;;-141.84;50.27
15260;BME280;34462;51.368;12.364;2022-09-09T09:56:16;21562.06;;;-141.84;49.76
15260;BME280;34462;51.368;12.364;2022-09-09T09:58:51;21572.22;;;-141.84;49.62
15260;BME280;34462;51.368;12.364;2022-09-09T10:01:22;21635.25;;;-141.84;49.91
15260;BME280;34462;51.368;12.364;2022-09-09T10:03:54;21576.28;;;-141.84;50.12
15260;BME280;34462;51.368;12.364;2022-09-09T10:06:33;21505.13;;;-141.84;51.24
15260;BME280;34462;51.368;12.364;2022-09-09T10:09:17;21456.34;;;-141.84;52.40
15260;BME280;34462;51.368;12.364;2022-09-09T10:11:56;21529.53;;;-141.84;51.85
15260;BME280;34462;51.368;12.364;2022-09-09T10:14:35;21651.53;;;-141.84;50.43
15260;BME280;34462;51.368;12.364;2022-09-09T10:17:19;21771.50;;;-141.84;50.24
15260;BME280;34462;51.368;12.364;2022-09-09T10:20:17;21761.31;;;-141.84;47.89
15260;BME280;34462;51.368;12.364;2022-09-09T10:22:52;21702.34;;;-141.84;48.60
15260;BME280;34462;51.368;12.364;2022-09-09T10:25:55;21675.94;;;-141.84;49.70
15260;BME280;34462;51.368;12.364;2022-09-09T10:28:47;21582.38;;;-141.84;50.84
15260;BME280;34462;51.368;12.364;2022-09-09T10:31:30;21637.28;;;-141.84;50.09
15260;BME280;34462;51.368;12.364;2022-09-09T10:34:33;21594.59;;;-141.84;50.55
15260;BME280;34462;51.368;12.364;2022-09-09T10:37:21;21621.03;;;-141.84;50.02
15260;BME280;34462;51.368;12.364;2022-09-09T10:40:08;21598.66;;;-141.84;50.61
15260;BME280;34462;51.368;12.364;2022-09-09T10:42:45;21476.66;;;-141.84;51.53
15260;BME280;34462;51.368;12.364;2022-09-09T10:45:19;21448.19;;;-141.84;52.38
15260;BME280;34462;51.368;12.364;2022-09-09T10:48:12;21403.47;;;-141.84;52.98
15260;BME280;34462;51.368;12.364;2022-09-09T10:50:56;21444.13;;;-141.84;52.11
15260;BME280;34462;51.368;12.364;2022-09-09T10:53:40;21440.06;;;-141.84;51.54
15260;BME280;34462;51.368;12.364;2022-09-09T10:56:16;21521.41;;;-141.84;50.99
15260;BME280;34462;51.368;12.364;2022-09-09T10:58:53;21537.66;;;-141.84;50.38
15260;BME280;34462;51.368;12.364;2022-09-09T11:01:30;21584.44;;;-141.84;50.57
15260;BME280;34462;51.368;12.364;2022-09-09T11:04:09;21627.13;;;-141.84;50.50
15260;BME280;34462;51.368;12.364;2022-09-09T11:06:45;21700.31;;;-141.84;48.98
15260;BME280;34462;51.368;12.364;2022-09-09T11:09:18;21606.78;;;-141.84;48.98
15260;BME280;34462;51.368;12.364;2022-09-09T11:11:54;21547.81;;;-141.84;49.13
15260;BME280;34462;51.368;12.364;2022-09-09T11:14:29;21576.28;;;-141.84;49.57
15260;BME280;34462;51.368;12.364;2022-09-09T11:17:09;21572.22;;;-141.84;49.61
15260;BME280;34462;51.368;12.364;2022-09-09T11:19:40;21511.22;;;-141.84;50.52
15260;BME280;34462;51.368;12.364;2022-09-09T11:22:20;21476.66;;;-141.84;51.00
15260;BME280;34462;51.368;12.364;2022-09-09T11:24:57;21497.00;;;-141.84;50.20
15260;BME280;34462;51.368;12.364;2022-09-09T11:27:33;21588.50;;;-141.84;49.41
15260;BME280;34462;51.368;12.364;2022-09-09T11:30:21;21627.13;;;-141.84;48.61
15260;BME280;34462;51.368;12.364;2022-09-09T11:33:48;21745.06;;;-141.84;47.66
15260;BME280;34462;51.368;12.364;2022-09-09T11:36:44;21830.47;;;-141.84;46.93
15260;BME280;34462;51.368;12.364;2022-09-09T11:39:44;21980.94;;;-141.84;45.45
15260;BME280;34462;51.368;12.364;2022-09-09T11:42:19;22048.03;;;-141.84;43.73
15260;BME280;34462;51.368;12.364;2022-09-09T11:44:48;22155.81;;;-141.84;43.93
15260;BME280;34462;51.368;12.364;2022-09-09T11:47:23;22102.94;;;-141.84;43.70
15260;BME280;34462;51.368;12.364;2022-09-09T11:50:22;22139.56;;;-141.84;44.10
15260;BME280;34462;51.368;12.364;2022-09-09T11:53:17;22029.75;;;-141.84;44.84
15260;BME280;34462;51.368;12.364;2022-09-09T11:56:06;21964.66;;;-141.84;45.31
15260;BME280;34462;51.368;12.364;2022-09-09T11:58:42;21921.97;;;-141.84;45.26
15260;BME280;34462;51.368;12.364;2022-09-09T12:01:37;21940.25;;;-141.84;45.38
15260;BME280;34462;51.368;12.364;2022-09-09T12:04:37;21926.03;;;-141.84;45.49
15260;BME280;34462;51.368;12.364;2022-09-09T12:07:30;21899.59;;;-141.84;45.74
15260;BME280;34462;51.368;12.364;2022-09-09T12:10:04;21919.94;;;-141.84;44.37
15260;BME280;34462;51.368;12.364;2022-09-09T12:12:37;21932.13;;;-141.84;45.66
15260;BME280;34462;51.368;12.364;2022-09-09T12:15:26;21903.66;;;-141.84;46.31
15260;BME280;34462;51.368;12.364;2022-09-09T12:17:58;21934.16;;;-141.84;46.03
15260;BME280;34462;51.368;12.364;2022-09-09T12:20:36;21985.00;;;-141.84;45.34
15260;BME280;34462;51.368;12.364;2022-09-09T12:23:36;21991.09;;;-141.84;45.30
15260;BME280;34462;51.368;12.364;2022-09-09T12:26:32;22050.06;;;-141.84;45.20
15260;BME280;34462;51.368;12.364;2022-09-09T12:29:22;21997.19;;;-141.84;45.59
15260;BME280;34462;51.368;12.364;2022-09-09T12:32:01;22035.84;;;-141.84;45.38
15260;BME280;34462;51.368;12.364;2022-09-09T12:34:38;22068.38;;;-141.84;44.38
15260;BME280;34462;51.368;12.364;2022-09-09T12:37:18;22050.06;;;-141.84;44.54
15260;BME280;34462;51.368;12.364;2022-09-09T12:39:55;21982.97;;;-141.84;44.81
15260;BME280;34462;51.368;12.364;2022-09-09T12:42:25;21976.88;;;-141.84;45.39
15260;BME280;34462;51.368;12.364;2022-09-09T12:44:55;21980.94;;;-141.84;45.08
15260;BME280;34462;51.368;12.364;2022-09-09T12:47:39;22015.50;;;-141.84;44.97
15260;BME280;34462;51.368;12.364;2022-09-09T12:50:19;21978.91;;;-141.84;45.23
15260;BME280;34462;51.368;12.364;2022-09-09T12:52:53;21993.13;;;-141.84;44.67
15260;BME280;34462;51.368;12.364;2022-09-09T12:55:28;22046.00;;;-141.84;43.97
15260;BME280;34462;51.368;12.364;2022-09-09T12:57:57;22050.06;;;-141.84;44.17
15260;BME280;34462;51.368;12.364;2022-09-09T13:00:27;22003.31;;;-141.84;44.62
15260;BME280;34462;51.368;12.364;2022-09-09T13:02:59;21964.66;;;-141.84;44.75
15260;BME280;34462;51.368;12.364;2022-09-09T13:05:35;22058.22;;;-141.84;44.44
15260;BME280;34462;51.368;12.364;2022-09-09T13:08:09;22129.38;;;-141.84;43.24